sensor_id;sensor_type;location;lat;lon;timestamp;P1;durP1;ratioP1;P2;durP2;ratioP2
1957;SDS011;979;51.076;13.748;2023-08-20T00:00:06;30.40;;;28.50;;
1957;SDS011;979;51.076;13.748;2023-08-20T00:02:39;30.40;;;28.50;;
1957;SDS011;979;51.076;13.748;2023-08-20T00:05:10;31.37;;;29.17;;
1957;SDS011;979;51.076;13.748;2023-08-20T00:07:42;31.40;;;29.30;;
1957;SDS011;979;51.076;13.748;2023-08-20T00:10:11;29.43;;;27.60;;
1957;SDS011;979;51.076;13.748;2023-08-20T00:12:39;30.60;;;28.67;;
1957;SDS011;979;51.076;13.748;2023-08-20T00:15:09;30.13;;;28.33;;
1957;SDS011;979;51.076;13.748;2023-08-20T00:17:38;30.33;;;28.43;;
1957;SDS011;979;51.076;13.748;2023-08-20T00:20:08;30.53;;;28.83;;
1957;SDS011;979;51.076;13.748;2023-08-20T00:22:39;31.70;;;29.67;;
1957;SDS011;979;51.076;13.748;2023-08-20T00:25:11;31.70;;;29.60;;
1957;SDS011;979;51.076;13.748;2023-08-20T00:27:40;31.20;;;29.20;;
1957;SDS011;979;51.076;13.748;2023-08-20T00:30:11;30.40;;;28.40;;
1957;SDS011;979;51.076;13.748;2023-08-20T00:32:44;31.87;;;29.87;;
1957;SDS011;979;51.076;13.748;2023-08-20T00:35:12;31.17;;;29.10;;
1957;SDS011;979;51.076;13.748;2023-08-20T00:37:45;31.00;;;29.10;;
1957;SDS011;979;51.076;13.748;2023-08-20T00:40:15;29.37;;;27.60;;
1957;SDS011;979;51.076;13.748;2023-08-20T00:42:46;30.63;;;28.83;;
1957;SDS011;979;51.076;13.748;2023-08-20T00:45:20;30.23;;;28.27;;
1957;SDS011;979;51.076;13.748;2023-08-20T00:47:49;29.33;;;27.63;;
1957;SDS011;979;51.076;13.748;2023-08-20T00:50:18;30.53;;;28.63;;
1957;SDS011;979;51.076;13.748;2023-08-20T00:52:47;33.67;;;31.33;;
1957;SDS011;979;51.076;13.748;2023-08-20T00:55:16;30.47;;;28.67;;
1957;SDS011;979;51.076;13.748;2023-08-20T00:57:46;31.43;;;29.30;;
1957;SDS011;979;51.076;13.748;2023-08-20T01:00:14;31.13;;;29.23;;
1957;SDS011;979;51.076;13.748;2023-08-20T01:02:46;29.67;;;27.87;;
1957;SDS011;979;51.076;13.748;2023-08-20T01:05:14;31.53;;;29.43;;
1957;SDS011;979;51.076;13.748;2023-08-20T01:07:48;31.43;;;29.60;;
1957;SDS011;979;51.076;13.748;2023-08-20T01:10:40;30.87;;;28.67;;
1957;SDS011;979;51.076;13.748;2023-08-20T01:13:15;30.50;;;28.50;;
1957;SDS011;979;51.076;13.748;2023-08-20T01:15:44;29.97;;;28.00;;
1957;SDS011;979;51.076;13.748;2023-08-20T01:18:14;31.40;;;29.20;;
1957;SDS011;979;51.076;13.748;2023-08-20T01:20:45;30.27;;;28.17;;
1957;SDS011;979;51.076;13.748;2023-08-20T01:26:21;29.97;;;28.17;;
1957;SDS011;979;51.076;13.748;2023-08-20T01:29:09;30.50;;;28.60;;
1957;SDS011;979;51.076;13.748;2023-08-20T01:31:38;29.87;;;28.07;;
1957;SDS011;979;51.076;13.748;2023-08-20T01:34:08;29.70;;;28.00;;
1957;SDS011;979;51.076;13.748;2023-08-20T01:36:38;30.33;;;28.43;;
1957;SDS011;979;51.076;13.748;2023-08-20T01:39:09;29.77;;;28.07;;
1957;SDS011;979;51.076;13.748;2023-08-20T01:41:38;30.90;;;28.90;;
1957;SDS011;979;51.076;13.748;2023-08-20T01:44:10;30.70;;;28.90;;
1957;SDS011;979;51.076;13.748;2023-08-20T01:46:41;31.80;;;29.50;;
1957;SDS011;979;51.076;13.748;2023-08-20T01:49:09;30.13;;;28.23;;
1957;SDS011;979;51.076;13.748;2023-08-20T01:51:40;31.10;;;28.47;;
1957;SDS011;979;51.076;13.748;2023-08-20T01:54:08;29.80;;;28.10;;
1957;SDS011;979;51.076;13.748;2023-08-20T01:56:41;29.23;;;27.53;;
1957;SDS011;979;51.076;13.748;2023-08-20T01:59:10;29.70;;;27.80;;
1957;SDS011;979;51.076;13.748;2023-08-20T02:01:39;31.63;;;29.60;;
1957;SDS011;979;51.076;13.748;2023-08-20T02:04:07;28.97;;;27.37;;
1957;SDS011;979;51.076;13.748;2023-08-20T02:06:36;29.97;;;28.00;;
1957;SDS011;979;51.076;13.748;2023-08-20T02:09:05;31.60;;;29.50;;
1957;SDS011;979;51.076;13.748;2023-08-20T02:11:33;29.97;;;27.93;;
1957;SDS011;979;51.076;13.748;2023-08-20T02:14:02;30.90;;;28.93;;
1957;SDS011;979;51.076;13.748;2023-08-20T02:16:32;30.20;;;28.43;;
1957;SDS011;979;51.076;13.748;2023-08-20T02:19:04;29.80;;;28.00;;
1957;SDS011;979;51.076;13.748;2023-08-20T02:21:33;28.80;;;26.93;;
1957;SDS011;979;51.076;13.748;2023-08-20T02:24:01;30.93;;;28.90;;
1957;SDS011;979;51.076;13.748;2023-08-20T02:26:30;30.80;;;28.90;;
1957;SDS011;979;51.076;13.748;2023-08-20T02:29:01;29.87;;;28.07;;
1957;SDS011;979;51.076;13.748;2023-08-20T02:31:33;30.67;;;28.93;;
1957;SDS011;979;51.076;13.748;2023-08-20T02:34:01;31.00;;;29.10;;
1957;SDS011;979;51.076;13.748;2023-08-20T02:36:29;31.53;;;29.57;;
1957;SDS011;979;51.076;13.748;2023-08-20T02:38:58;32.23;;;30.07;;
1957;SDS011;979;51.076;13.748;2023-08-20T02:41:26;30.90;;;29.00;;
1957;SDS011;979;51.076;13.748;2023-08-20T02:43:54;30.60;;;28.70;;
1957;SDS011;979;51.076;13.748;2023-08-20T02:46:23;32.93;;;30.93;;
1957;SDS011;979;51.076;13.748;2023-08-20T02:48:57;31.43;;;29.60;;
1957;SDS011;979;51.076;13.748;2023-08-20T02:51:26;31.87;;;29.77;;
1957;SDS011;979;51.076;13.748;2023-08-20T02:53:55;32.37;;;30.27;;
1957;SDS011;979;51.076;13.748;2023-08-20T02:56:23;31.53;;;29.57;;
1957;SDS011;979;51.076;13.748;2023-08-20T02:58:53;30.53;;;28.87;;
1957;SDS011;979;51.076;13.748;2023-08-20T03:01:22;31.43;;;29.00;;
1957;SDS011;979;51.076;13.748;2023-08-20T03:03:55;32.80;;;30.67;;
1957;SDS011;979;51.076;13.748;2023-08-20T03:06:25;32.50;;;30.50;;
1957;SDS011;979;51.076;13.748;2023-08-20T03:08:53;31.70;;;29.67;;
1957;SDS011;979;51.076;13.748;2023-08-20T03:11:22;31.03;;;29.23;;
1957;SDS011;979;51.076;13.748;2023-08-20T03:13:50;32.40;;;30.50;;
1957;SDS011;979;51.076;13.748;2023-08-20T03:16:20;30.70;;;28.97;;
1957;SDS011;979;51.076;13.748;2023-08-20T03:18:51;30.97;;;29.17;;
1957;SDS011;979;51.076;13.748;2023-08-20T03:21:20;32.00;;;30.20;;
1957;SDS011;979;51.076;13.748;2023-08-20T03:23:49;32.67;;;30.57;;
1957;SDS011;979;51.076;13.748;2023-08-20T03:26:19;31.50;;;29.63;;
1957;SDS011;979;51.076;13.748;2023-08-20T03:28:47;32.50;;;30.40;;
1957;SDS011;979;51.076;13.748;2023-08-20T03:31:18;32.30;;;30.50;;
1957;SDS011;979;51.076;13.748;2023-08-20T03:33:49;32.97;;;30.43;;
1957;SDS011;979;51.076;13.748;2023-08-20T03:36:17;31.37;;;29.53;;
1957;SDS011;979;51.076;13.748;2023-08-20T03:38:47;31.77;;;29.70;;
1957;SDS011;979;51.076;13.748;2023-08-20T03:41:16;31.97;;;30.07;;
1957;SDS011;979;51.076;13.748;2023-08-20T03:43:44;33.10;;;31.10;;
1957;SDS011;979;51.076;13.748;2023-08-20T03:46:13;31.70;;;29.50;;
1957;SDS011;979;51.076;13.748;2023-08-20T03:48:43;30.93;;;28.73;;
1957;SDS011;979;51.076;13.748;2023-08-20T03:51:12;30.30;;;28.50;;
1957;SDS011;979;51.076;13.748;2023-08-20T03:53:40;30.00;;;28.30;;
1957;SDS011;979;51.076;13.748;2023-08-20T03:56:12;31.50;;;29.60;;
1957;SDS011;979;51.076;13.748;2023-08-20T03:58:42;31.33;;;29.33;;
1957;SDS011;979;51.076;13.748;2023-08-20T04:01:10;30.70;;;28.90;;
1957;SDS011;979;51.076;13.748;2023-08-20T04:03:39;28.70;;;27.00;;
1957;SDS011;979;51.076;13.748;2023-08-20T04:06:07;29.97;;;28.23;;
1957;SDS011;979;51.076;13.748;2023-08-20T04:08:38;30.47;;;28.67;;
1957;SDS011;979;51.076;13.748;2023-08-20T04:11:14;29.60;;;27.70;;
1957;SDS011;979;51.076;13.748;2023-08-20T04:13:43;30.73;;;28.97;;
1957;SDS011;979;51.076;13.748;2023-08-20T04:16:12;31.23;;;29.33;;
1957;SDS011;979;51.076;13.748;2023-08-20T04:18:40;31.20;;;29.40;;
1957;SDS011;979;51.076;13.748;2023-08-20T04:21:10;31.60;;;29.70;;
1957;SDS011;979;51.076;13.748;2023-08-20T04:23:39;29.93;;;27.83;;
1957;SDS011;979;51.076;13.748;2023-08-20T04:26:08;31.03;;;29.13;;
1957;SDS011;979;51.076;13.748;2023-08-20T04:28:38;29.67;;;27.97;;
1957;SDS011;979;51.076;13.748;2023-08-20T04:31:06;31.23;;;29.33;;
1957;SDS011;979;51.076;13.748;2023-08-20T04:33:49;31.47;;;29.37;;
1957;SDS011;979;51.076;13.748;2023-08-20T04:36:22;30.73;;;28.73;;
1957;SDS011;979;51.076;13.748;2023-08-20T04:38:50;29.73;;;28.00;;
1957;SDS011;979;51.076;13.748;2023-08-20T04:41:21;30.23;;;28.53;;
1957;SDS011;979;51.076;13.748;2023-08-20T04:43:51;33.97;;;30.33;;
1957;SDS011;979;51.076;13.748;2023-08-20T04:46:21;31.90;;;29.90;;
1957;SDS011;979;51.076;13.748;2023-08-20T04:48:52;31.60;;;29.40;;
1957;SDS011;979;51.076;13.748;2023-08-20T04:51:20;31.13;;;29.33;;
1957;SDS011;979;51.076;13.748;2023-08-20T04:53:52;33.30;;;31.17;;
1957;SDS011;979;51.076;13.748;2023-08-20T04:56:22;31.20;;;29.20;;
1957;SDS011;979;51.076;13.748;2023-08-20T04:58:56;30.60;;;28.40;;
1957;SDS011;979;51.076;13.748;2023-08-20T05:01:44;29.30;;;27.40;;
1957;SDS011;979;51.076;13.748;2023-08-20T05:04:12;30.03;;;28.20;;
1957;SDS011;979;51.076;13.748;2023-08-20T05:06:42;29.40;;;27.40;;
1957;SDS011;979;51.076;13.748;2023-08-20T05:09:11;27.53;;;25.80;;
1957;SDS011;979;51.076;13.748;2023-08-20T05:11:43;30.37;;;28.17;;
1957;SDS011;979;51.076;13.748;2023-08-20T05:14:14;29.70;;;27.57;;
1957;SDS011;979;51.076;13.748;2023-08-20T05:16:45;28.77;;;27.03;;
1957;SDS011;979;51.076;13.748;2023-08-20T05:19:13;28.23;;;26.47;;
1957;SDS011;979;51.076;13.748;2023-08-20T05:21:42;28.53;;;26.10;;
1957;SDS011;979;51.076;13.748;2023-08-20T05:24:10;28.07;;;26.00;;
1957;SDS011;979;51.076;13.748;2023-08-20T05:26:41;27.57;;;25.80;;
1957;SDS011;979;51.076;13.748;2023-08-20T05:29:09;26.77;;;25.07;;
1957;SDS011;979;51.076;13.748;2023-08-20T05:31:41;27.13;;;25.63;;
1957;SDS011;979;51.076;13.748;2023-08-20T05:34:09;27.40;;;25.80;;
1957;SDS011;979;51.076;13.748;2023-08-20T05:36:37;27.13;;;25.33;;
1957;SDS011;979;51.076;13.748;2023-08-20T05:39:08;26.80;;;25.20;;
1957;SDS011;979;51.076;13.748;2023-08-20T05:41:37;27.90;;;25.83;;
1957;SDS011;979;51.076;13.748;2023-08-20T05:44:05;26.90;;;25.10;;
1957;SDS011;979;51.076;13.748;2023-08-20T05:46:34;25.30;;;23.73;;
1957;SDS011;979;51.076;13.748;2023-08-20T05:49:03;25.87;;;24.30;;
1957;SDS011;979;51.076;13.748;2023-08-20T05:51:34;25.70;;;24.20;;
1957;SDS011;979;51.076;13.748;2023-08-20T05:54:05;26.33;;;24.53;;
1957;SDS011;979;51.076;13.748;2023-08-20T05:56:34;26.37;;;24.40;;
1957;SDS011;979;51.076;13.748;2023-08-20T05:59:03;26.13;;;24.13;;
1957;SDS011;979;51.076;13.748;2023-08-20T06:01:31;25.60;;;24.07;;
1957;SDS011;979;51.076;13.748;2023-08-20T06:04:04;25.70;;;24.27;;
1957;SDS011;979;51.076;13.748;2023-08-20T06:06:34;26.30;;;24.77;;
1957;SDS011;979;51.076;13.748;2023-08-20T06:09:03;25.23;;;23.83;;
1957;SDS011;979;51.076;13.748;2023-08-20T06:11:35;25.97;;;24.33;;
1957;SDS011;979;51.076;13.748;2023-08-20T06:14:03;25.83;;;24.07;;
1957;SDS011;979;51.076;13.748;2023-08-20T06:16:35;24.97;;;23.67;;
1957;SDS011;979;51.076;13.748;2023-08-20T06:19:07;25.67;;;24.27;;
1957;SDS011;979;51.076;13.748;2023-08-20T06:21:35;25.90;;;24.30;;
1957;SDS011;979;51.076;13.748;2023-08-20T06:24:04;26.67;;;25.10;;
1957;SDS011;979;51.076;13.748;2023-08-20T06:26:32;26.07;;;24.43;;
1957;SDS011;979;51.076;13.748;2023-08-20T06:29:00;26.07;;;24.50;;
1957;SDS011;979;51.076;13.748;2023-08-20T06:31:29;25.50;;;24.03;;
1957;SDS011;979;51.076;13.748;2023-08-20T06:33:57;25.60;;;24.00;;
1957;SDS011;979;51.076;13.748;2023-08-20T06:36:27;26.90;;;25.40;;
1957;SDS011;979;51.076;13.748;2023-08-20T06:38:55;25.77;;;23.97;;
1957;SDS011;979;51.076;13.748;2023-08-20T06:41:23;25.90;;;24.30;;
1957;SDS011;979;51.076;13.748;2023-08-20T06:43:52;25.80;;;24.40;;
1957;SDS011;979;51.076;13.748;2023-08-20T06:46:20;27.07;;;25.47;;
1957;SDS011;979;51.076;13.748;2023-08-20T06:48:48;25.57;;;24.07;;
1957;SDS011;979;51.076;13.748;2023-08-20T06:51:19;25.47;;;23.67;;
1957;SDS011;979;51.076;13.748;2023-08-20T06:53:49;24.67;;;23.17;;
1957;SDS011;979;51.076;13.748;2023-08-20T06:56:17;25.30;;;23.63;;
1957;SDS011;979;51.076;13.748;2023-08-20T06:58:46;26.13;;;24.63;;
1957;SDS011;979;51.076;13.748;2023-08-20T07:01:14;25.23;;;23.57;;
1957;SDS011;979;51.076;13.748;2023-08-20T07:03:43;25.90;;;24.30;;
1957;SDS011;979;51.076;13.748;2023-08-20T07:06:11;25.90;;;24.00;;
1957;SDS011;979;51.076;13.748;2023-08-20T07:08:42;25.67;;;24.20;;
1957;SDS011;979;51.076;13.748;2023-08-20T07:11:12;25.80;;;24.13;;
1957;SDS011;979;51.076;13.748;2023-08-20T07:13:40;25.90;;;24.40;;
1957;SDS011;979;51.076;13.748;2023-08-20T07:16:08;26.40;;;24.43;;
1957;SDS011;979;51.076;13.748;2023-08-20T07:18:37;26.20;;;24.33;;
1957;SDS011;979;51.076;13.748;2023-08-20T07:21:05;25.33;;;23.83;;
1957;SDS011;979;51.076;13.748;2023-08-20T07:23:36;24.53;;;23.00;;
1957;SDS011;979;51.076;13.748;2023-08-20T07:26:07;24.73;;;23.43;;
1957;SDS011;979;51.076;13.748;2023-08-20T07:28:40;26.07;;;24.40;;
1957;SDS011;979;51.076;13.748;2023-08-20T07:31:31;27.10;;;25.40;;
1957;SDS011;979;51.076;13.748;2023-08-20T07:34:01;25.70;;;24.00;;
1957;SDS011;979;51.076;13.748;2023-08-20T07:36:34;25.80;;;24.30;;
1957;SDS011;979;51.076;13.748;2023-08-20T07:39:03;25.83;;;24.33;;
1957;SDS011;979;51.076;13.748;2023-08-20T07:41:32;25.57;;;24.17;;
1957;SDS011;979;51.076;13.748;2023-08-20T07:44:04;25.43;;;23.93;;
1957;SDS011;979;51.076;13.748;2023-08-20T07:46:32;25.53;;;23.97;;
1957;SDS011;979;51.076;13.748;2023-08-20T07:49:01;26.47;;;24.87;;
1957;SDS011;979;51.076;13.748;2023-08-20T07:51:29;25.30;;;23.80;;
1957;SDS011;979;51.076;13.748;2023-08-20T07:53:57;26.10;;;24.50;;
1957;SDS011;979;51.076;13.748;2023-08-20T07:56:26;25.50;;;24.13;;
1957;SDS011;979;51.076;13.748;2023-08-20T07:58:57;26.67;;;24.93;;
1957;SDS011;979;51.076;13.748;2023-08-20T08:01:29;28.27;;;26.30;;
1957;SDS011;979;51.076;13.748;2023-08-20T08:03:57;26.20;;;24.70;;
1957;SDS011;979;51.076;13.748;2023-08-20T08:06:26;27.90;;;26.10;;
1957;SDS011;979;51.076;13.748;2023-08-20T08:08:54;24.63;;;23.33;;
1957;SDS011;979;51.076;13.748;2023-08-20T08:11:22;26.50;;;24.70;;
1957;SDS011;979;51.076;13.748;2023-08-20T08:13:51;25.70;;;24.20;;
1957;SDS011;979;51.076;13.748;2023-08-20T08:16:21;26.87;;;25.17;;
1957;SDS011;979;51.076;13.748;2023-08-20T08:18:53;25.43;;;24.00;;
1957;SDS011;979;51.076;13.748;2023-08-20T08:21:22;25.53;;;24.03;;
1957;SDS011;979;51.076;13.748;2023-08-20T08:23:50;25.47;;;24.10;;
1957;SDS011;979;51.076;13.748;2023-08-20T08:26:19;25.43;;;24.03;;
1957;SDS011;979;51.076;13.748;2023-08-20T08:28:47;24.10;;;22.80;;
1957;SDS011;979;51.076;13.748;2023-08-20T08:31:16;24.87;;;23.53;;
1957;SDS011;979;51.076;13.748;2023-08-20T08:33:44;24.60;;;23.10;;
1957;SDS011;979;51.076;13.748;2023-08-20T08:36:16;23.80;;;22.50;;
1957;SDS011;979;51.076;13.748;2023-08-20T08:38:44;24.40;;;23.20;;
1957;SDS011;979;51.076;13.748;2023-08-20T08:41:13;25.30;;;23.80;;
1957;SDS011;979;51.076;13.748;2023-08-20T08:43:44;24.33;;;23.03;;
1957;SDS011;979;51.076;13.748;2023-08-20T08:46:13;24.47;;;23.07;;
1957;SDS011;979;51.076;13.748;2023-08-20T08:48:44;24.87;;;23.37;;
1957;SDS011;979;51.076;13.748;2023-08-20T08:51:14;25.10;;;23.80;;
1957;SDS011;979;51.076;13.748;2023-08-20T08:53:57;24.20;;;22.60;;
1957;SDS011;979;51.076;13.748;2023-08-20T08:56:26;26.83;;;25.20;;
1957;SDS011;979;51.076;13.748;2023-08-20T08:58:54;27.53;;;25.73;;
1957;SDS011;979;51.076;13.748;2023-08-20T09:01:22;26.50;;;24.90;;
1957;SDS011;979;51.076;13.748;2023-08-20T09:03:51;26.70;;;25.20;;
1957;SDS011;979;51.076;13.748;2023-08-20T09:06:24;25.77;;;24.47;;
1957;SDS011;979;51.076;13.748;2023-08-20T09:08:56;26.90;;;25.30;;
1957;SDS011;979;51.076;13.748;2023-08-20T09:11:34;28.30;;;26.53;;
1957;SDS011;979;51.076;13.748;2023-08-20T09:18:44;28.00;;;26.40;;
1957;SDS011;979;51.076;13.748;2023-08-20T09:21:53;28.73;;;27.20;;
1957;SDS011;979;51.076;13.748;2023-08-20T09:24:26;25.97;;;24.53;;
1957;SDS011;979;51.076;13.748;2023-08-20T09:26:59;28.43;;;26.83;;
1957;SDS011;979;51.076;13.748;2023-08-20T09:29:31;28.30;;;26.50;;
1957;SDS011;979;51.076;13.748;2023-08-20T09:32:01;27.50;;;25.80;;
1957;SDS011;979;51.076;13.748;2023-08-20T09:34:37;26.33;;;24.93;;
1957;SDS011;979;51.076;13.748;2023-08-20T09:37:11;26.70;;;25.10;;
1957;SDS011;979;51.076;13.748;2023-08-20T09:39:41;25.40;;;23.77;;
1957;SDS011;979;51.076;13.748;2023-08-20T09:42:10;26.37;;;24.87;;
1957;SDS011;979;51.076;13.748;2023-08-20T09:44:39;25.50;;;24.20;;
1957;SDS011;979;51.076;13.748;2023-08-20T09:47:08;26.50;;;24.90;;
1957;SDS011;979;51.076;13.748;2023-08-20T09:49:40;27.40;;;25.63;;
1957;SDS011;979;51.076;13.748;2023-08-20T09:52:16;26.47;;;24.97;;
1957;SDS011;979;51.076;13.748;2023-08-20T09:54:53;29.00;;;27.20;;
1957;SDS011;979;51.076;13.748;2023-08-20T09:57:32;25.67;;;24.10;;
1957;SDS011;979;51.076;13.748;2023-08-20T10:00:04;26.23;;;24.67;;
1957;SDS011;979;51.076;13.748;2023-08-20T10:02:39;28.13;;;26.33;;
1957;SDS011;979;51.076;13.748;2023-08-20T10:05:08;27.20;;;25.70;;
1957;SDS011;979;51.076;13.748;2023-08-20T10:07:42;26.43;;;24.93;;
1957;SDS011;979;51.076;13.748;2023-08-20T10:10:11;27.87;;;26.27;;
1957;SDS011;979;51.076;13.748;2023-08-20T10:12:40;26.40;;;24.90;;
1957;SDS011;979;51.076;13.748;2023-08-20T10:15:10;26.50;;;24.90;;
1957;SDS011;979;51.076;13.748;2023-08-20T10:17:40;27.33;;;25.47;;
1957;SDS011;979;51.076;13.748;2023-08-20T10:20:12;26.70;;;24.70;;
1957;SDS011;979;51.076;13.748;2023-08-20T10:22:44;26.60;;;24.93;;
1957;SDS011;979;51.076;13.748;2023-08-20T10:25:21;27.10;;;25.50;;
1957;SDS011;979;51.076;13.748;2023-08-20T10:27:51;27.90;;;26.37;;
1957;SDS011;979;51.076;13.748;2023-08-20T10:30:23;28.13;;;26.23;;
1957;SDS011;979;51.076;13.748;2023-08-20T10:32:53;26.53;;;25.03;;
1957;SDS011;979;51.076;13.748;2023-08-20T10:35:26;28.13;;;26.57;;
1957;SDS011;979;51.076;13.748;2023-08-20T10:38:06;24.67;;;23.20;;
1957;SDS011;979;51.076;13.748;2023-08-20T10:40:48;26.30;;;24.80;;
1957;SDS011;979;51.076;13.748;2023-08-20T10:43:29;26.23;;;24.93;;
1957;SDS011;979;51.076;13.748;2023-08-20T10:46:02;25.03;;;23.83;;
1957;SDS011;979;51.076;13.748;2023-08-20T10:48:43;25.10;;;23.80;;
1957;SDS011;979;51.076;13.748;2023-08-20T10:51:14;24.30;;;22.80;;
1957;SDS011;979;51.076;13.748;2023-08-20T10:53:48;23.70;;;22.43;;
1957;SDS011;979;51.076;13.748;2023-08-20T10:56:40;24.63;;;23.23;;
1957;SDS011;979;51.076;13.748;2023-08-20T10:59:16;23.67;;;22.47;;
1957;SDS011;979;51.076;13.748;2023-08-20T11:01:49;23.30;;;22.20;;
1957;SDS011;979;51.076;13.748;2023-08-20T11:04:19;22.80;;;21.70;;
1957;SDS011;979;51.076;13.748;2023-08-20T11:06:49;24.20;;;22.73;;
1957;SDS011;979;51.076;13.748;2023-08-20T11:09:22;22.73;;;21.63;;
1957;SDS011;979;51.076;13.748;2023-08-20T11:11:51;22.50;;;21.50;;
1957;SDS011;979;51.076;13.748;2023-08-20T11:14:20;22.90;;;21.80;;
1957;SDS011;979;51.076;13.748;2023-08-20T11:16:49;24.00;;;22.60;;
1957;SDS011;979;51.076;13.748;2023-08-20T11:19:18;22.80;;;21.70;;
1957;SDS011;979;51.076;13.748;2023-08-20T11:21:47;23.53;;;22.40;;
1957;SDS011;979;51.076;13.748;2023-08-20T11:24:44;23.43;;;22.20;;
1957;SDS011;979;51.076;13.748;2023-08-20T11:27:12;21.70;;;20.70;;
1957;SDS011;979;51.076;13.748;2023-08-20T11:29:41;21.07;;;20.10;;
1957;SDS011;979;51.076;13.748;2023-08-20T11:32:12;22.80;;;21.80;;
1957;SDS011;979;51.076;13.748;2023-08-20T11:34:40;22.90;;;21.70;;
1957;SDS011;979;51.076;13.748;2023-08-20T11:37:11;22.30;;;21.30;;
1957;SDS011;979;51.076;13.748;2023-08-20T11:39:39;22.87;;;21.77;;
1957;SDS011;979;51.076;13.748;2023-08-20T11:42:10;22.00;;;21.00;;
1957;SDS011;979;51.076;13.748;2023-08-20T11:44:42;21.57;;;20.67;;
1957;SDS011;979;51.076;13.748;2023-08-20T11:47:14;21.57;;;20.77;;
1957;SDS011;979;51.076;13.748;2023-08-20T11:49:43;20.47;;;19.43;;
1957;SDS011;979;51.076;13.748;2023-08-20T11:52:12;21.60;;;20.40;;
1957;SDS011;979;51.076;13.748;2023-08-20T11:54:41;20.33;;;19.43;;
1957;SDS011;979;51.076;13.748;2023-08-20T11:57:11;20.60;;;19.80;;
1957;SDS011;979;51.076;13.748;2023-08-20T11:59:39;20.70;;;19.80;;
1957;SDS011;979;51.076;13.748;2023-08-20T12:02:08;20.37;;;19.57;;
1957;SDS011;979;51.076;13.748;2023-08-20T12:04:36;21.40;;;20.40;;
1957;SDS011;979;51.076;13.748;2023-08-20T12:07:05;21.63;;;20.73;;
1957;SDS011;979;51.076;13.748;2023-08-20T12:09:37;21.57;;;20.67;;
1957;SDS011;979;51.076;13.748;2023-08-20T12:12:05;21.90;;;20.90;;
1957;SDS011;979;51.076;13.748;2023-08-20T12:14:36;21.90;;;20.70;;
1957;SDS011;979;51.076;13.748;2023-08-20T12:17:06;21.60;;;20.60;;
1957;SDS011;979;51.076;13.748;2023-08-20T12:19:37;21.23;;;20.23;;
1957;SDS011;979;51.076;13.748;2023-08-20T12:22:06;20.93;;;20.13;;
1957;SDS011;979;51.076;13.748;2023-08-20T12:24:37;19.70;;;19.00;;
1957;SDS011;979;51.076;13.748;2023-08-20T12:27:07;21.70;;;20.70;;
1957;SDS011;979;51.076;13.748;2023-08-20T12:29:37;20.70;;;19.90;;
1957;SDS011;979;51.076;13.748;2023-08-20T12:32:05;21.30;;;20.40;;
1957;SDS011;979;51.076;13.748;2023-08-20T12:34:34;21.00;;;20.20;;
1957;SDS011;979;51.076;13.748;2023-08-20T12:37:03;22.17;;;21.17;;
1957;SDS011;979;51.076;13.748;2023-08-20T12:39:31;21.73;;;20.83;;
1957;SDS011;979;51.076;13.748;2023-08-20T12:41:59;21.30;;;20.50;;
1957;SDS011;979;51.076;13.748;2023-08-20T12:44:28;21.17;;;20.13;;
1957;SDS011;979;51.076;13.748;2023-08-20T12:46:57;20.90;;;20.00;;
1957;SDS011;979;51.076;13.748;2023-08-20T12:49:25;20.70;;;19.90;;
1957;SDS011;979;51.076;13.748;2023-08-20T12:51:53;20.50;;;19.75;;
1957;SDS011;979;51.076;13.748;2023-08-20T12:54:22;20.10;;;19.30;;
1957;SDS011;979;51.076;13.748;2023-08-20T12:56:50;21.02;;;20.15;;
1957;SDS011;979;51.076;13.748;2023-08-20T12:59:18;19.17;;;18.58;;
1957;SDS011;979;51.076;13.748;2023-08-20T13:01:49;21.15;;;20.17;;
1957;SDS011;979;51.076;13.748;2023-08-20T13:04:19;20.88;;;20.08;;
1957;SDS011;979;51.076;13.748;2023-08-20T13:06:48;21.23;;;20.33;;
1957;SDS011;979;51.076;13.748;2023-08-20T13:09:17;20.35;;;19.60;;
1957;SDS011;979;51.076;13.748;2023-08-20T13:11:46;21.05;;;20.25;;
1957;SDS011;979;51.076;13.748;2023-08-20T13:14:18;21.13;;;20.30;;
1957;SDS011;979;51.076;13.748;2023-08-20T13:16:47;21.90;;;21.00;;
1957;SDS011;979;51.076;13.748;2023-08-20T13:19:16;20.42;;;19.63;;
1957;SDS011;979;51.076;13.748;2023-08-20T13:21:46;21.10;;;20.30;;
1957;SDS011;979;51.076;13.748;2023-08-20T13:24:14;21.45;;;20.23;;
1957;SDS011;979;51.076;13.748;2023-08-20T13:26:42;21.67;;;20.65;;
1957;SDS011;979;51.076;13.748;2023-08-20T13:29:11;20.52;;;19.65;;
1957;SDS011;979;51.076;13.748;2023-08-20T13:31:39;20.42;;;19.58;;
1957;SDS011;979;51.076;13.748;2023-08-20T13:34:07;19.90;;;19.00;;
1957;SDS011;979;51.076;13.748;2023-08-20T13:36:35;21.63;;;20.73;;
1957;SDS011;979;51.076;13.748;2023-08-20T13:39:09;20.35;;;19.58;;
1957;SDS011;979;51.076;13.748;2023-08-20T13:41:53;22.25;;;21.10;;
1957;SDS011;979;51.076;13.748;2023-08-20T13:44:25;21.73;;;20.67;;
1957;SDS011;979;51.076;13.748;2023-08-20T13:46:59;23.20;;;21.90;;
1957;SDS011;979;51.076;13.748;2023-08-20T13:49:37;23.10;;;21.80;;
1957;SDS011;979;51.076;13.748;2023-08-20T13:52:08;24.27;;;22.87;;
1957;SDS011;979;51.076;13.748;2023-08-20T13:54:43;23.63;;;22.60;;
1957;SDS011;979;51.076;13.748;2023-08-20T13:57:23;22.70;;;21.70;;
1957;SDS011;979;51.076;13.748;2023-08-20T14:00:14;22.10;;;21.00;;
1957;SDS011;979;51.076;13.748;2023-08-20T14:02:52;23.07;;;21.97;;
1957;SDS011;979;51.076;13.748;2023-08-20T14:05:21;22.83;;;21.83;;
1957;SDS011;979;51.076;13.748;2023-08-20T14:07:49;22.67;;;21.67;;
1957;SDS011;979;51.076;13.748;2023-08-20T14:10:18;23.20;;;22.30;;
1957;SDS011;979;51.076;13.748;2023-08-20T14:12:47;22.40;;;21.40;;
1957;SDS011;979;51.076;13.748;2023-08-20T14:15:17;22.40;;;21.40;;
1957;SDS011;979;51.076;13.748;2023-08-20T14:17:45;23.07;;;21.90;;
1957;SDS011;979;51.076;13.748;2023-08-20T14:20:14;22.23;;;21.33;;
1957;SDS011;979;51.076;13.748;2023-08-20T14:22:42;22.17;;;21.20;;
1957;SDS011;979;51.076;13.748;2023-08-20T14:25:11;22.17;;;21.27;;
1957;SDS011;979;51.076;13.748;2023-08-20T14:27:41;20.70;;;19.80;;
1957;SDS011;979;51.076;13.748;2023-08-20T14:30:09;21.73;;;20.63;;
1957;SDS011;979;51.076;13.748;2023-08-20T14:32:38;21.95;;;20.67;;
1957;SDS011;979;51.076;13.748;2023-08-20T14:35:07;22.33;;;21.42;;
1957;SDS011;979;51.076;13.748;2023-08-20T14:37:39;22.83;;;21.80;;
1957;SDS011;979;51.076;13.748;2023-08-20T14:40:10;22.58;;;21.40;;
1957;SDS011;979;51.076;13.748;2023-08-20T14:42:38;21.50;;;20.70;;
1957;SDS011;979;51.076;13.748;2023-08-20T14:45:09;21.48;;;20.67;;
1957;SDS011;979;51.076;13.748;2023-08-20T14:47:37;21.30;;;20.42;;
1957;SDS011;979;51.076;13.748;2023-08-20T14:50:06;21.20;;;20.30;;
1957;SDS011;979;51.076;13.748;2023-08-20T14:52:35;21.98;;;20.98;;
1957;SDS011;979;51.076;13.748;2023-08-20T14:55:04;24.42;;;23.00;;
1957;SDS011;979;51.076;13.748;2023-08-20T14:57:37;21.38;;;20.48;;
1957;SDS011;979;51.076;13.748;2023-08-20T15:00:19;21.83;;;20.83;;
1957;SDS011;979;51.076;13.748;2023-08-20T15:02:52;21.73;;;20.75;;
1957;SDS011;979;51.076;13.748;2023-08-20T15:05:20;19.98;;;18.98;;
1957;SDS011;979;51.076;13.748;2023-08-20T15:07:48;22.08;;;21.17;;
1957;SDS011;979;51.076;13.748;2023-08-20T15:10:16;20.95;;;20.02;;
1957;SDS011;979;51.076;13.748;2023-08-20T15:12:47;20.83;;;19.98;;
1957;SDS011;979;51.076;13.748;2023-08-20T15:15:16;22.10;;;21.20;;